VJC392 VVTS-VVPK
Flight info
| Callsign | VJC392 |
|---|---|
| Flight time | 0h 41m |
| Altitude | 31000 |
| Route | PATMA5Q PATMA PATMA1D |
| Aircraft | A321/M-SDE3FGHIRWY/LB1 |
Departure
| Time | 2026-04-28 16:52 |
|---|---|
| Airport | Tan Son Nhat International Airport (VVTS) |
Arrival
| Time | 2026-04-28 17:34 |
|---|---|
| Airport | Pleiku Airport (VVPK) |
| Time | Latitude | Longitude | Altitude | Speed | Heading |
|---|---|---|---|---|---|
| 2026-04-28 16:37 | 10.81259 | 106.66107 | 35 ft | 0 kts | 94° |
| 2026-04-28 16:42 | 10.81259 | 106.66106 | 34 ft | 2 kts | 94° |
| 2026-04-28 16:42 | 10.81261 | 106.66080 | 34 ft | 4 kts | 96° |
| 2026-04-28 16:43 | 10.81263 | 106.66057 | 36 ft | 2 kts | 94° |
| 2026-04-28 16:43 | 10.81261 | 106.66032 | 37 ft | 4 kts | 59° |
| 2026-04-28 16:43 | 10.81243 | 106.66016 | 36 ft | 4 kts | 13° |
| 2026-04-28 16:43 | 10.81218 | 106.66012 | 37 ft | 4 kts | 5° |
| 2026-04-28 16:44 | 10.81200 | 106.66011 | 37 ft | 4 kts | 5° |
| 2026-04-28 16:44 | 10.81193 | 106.66010 | 34 ft | 0 kts | 5° |
| 2026-04-28 16:45 | 10.81194 | 106.66010 | 34 ft | 0 kts | 5° |
| 2026-04-28 16:46 | 10.81206 | 106.66011 | 36 ft | 3 kts | 5° |
| 2026-04-28 16:46 | 10.81240 | 106.66015 | 36 ft | 6 kts | 6° |
| 2026-04-28 16:46 | 10.81294 | 106.66020 | 37 ft | 9 kts | 5° |
| 2026-04-28 16:46 | 10.81367 | 106.66027 | 37 ft | 12 kts | 6° |
| 2026-04-28 16:47 | 10.81458 | 106.66036 | 37 ft | 14 kts | 5° |
| 2026-04-28 16:47 | 10.81549 | 106.66043 | 37 ft | 12 kts | 5° |
| 2026-04-28 16:47 | 10.81618 | 106.66050 | 37 ft | 8 kts | 5° |
| 2026-04-28 16:47 | 10.81663 | 106.66054 | 37 ft | 5 kts | 5° |
| 2026-04-28 16:48 | 10.81703 | 106.66058 | 36 ft | 7 kts | 6° |
| 2026-04-28 16:48 | 10.81769 | 106.66064 | 37 ft | 12 kts | 5° |
| 2026-04-28 16:48 | 10.81861 | 106.66089 | 35 ft | 14 kts | 51° |
| 2026-04-28 16:48 | 10.81901 | 106.66178 | 36 ft | 13 kts | 69° |
| 2026-04-28 16:49 | 10.81932 | 106.66262 | 37 ft | 12 kts | 69° |
| 2026-04-28 16:49 | 10.81962 | 106.66339 | 37 ft | 12 kts | 69° |
| 2026-04-28 16:49 | 10.81996 | 106.66428 | 35 ft | 17 kts | 68° |
| 2026-04-28 16:49 | 10.82045 | 106.66560 | 33 ft | 21 kts | 69° |
| 2026-04-28 16:50 | 10.82096 | 106.66699 | 33 ft | 21 kts | 69° |
| 2026-04-28 16:50 | 10.82150 | 106.66838 | 32 ft | 21 kts | 68° |
| 2026-04-28 16:50 | 10.82201 | 106.66971 | 35 ft | 17 kts | 68° |
| 2026-04-28 16:50 | 10.82268 | 106.67004 | 35 ft | 11 kts | 339° |
| 2026-04-28 16:51 | 10.82329 | 106.66963 | 35 ft | 9 kts | 284° |
| 2026-04-28 16:51 | 10.82359 | 106.66924 | 35 ft | 5 kts | 297° |
| 2026-04-28 16:51 | 10.82355 | 106.66911 | 35 ft | 0 kts | 246° |
| 2026-04-28 16:51 | 10.82311 | 106.66797 | 33 ft | 52 kts | 249° |
| 2026-04-28 16:52 | 10.82098 | 106.66231 | 36 ft | 116 kts | 249° |
| 2026-04-28 16:52 | 10.81752 | 106.65314 | 36 ft | 164 kts | 249° |
| 2026-04-28 16:52 | 10.81315 | 106.64140 | 308 ft | 179 kts | 247° |
| 2026-04-28 16:52 | 10.80870 | 106.62955 | 922 ft | 180 kts | 246° |
| 2026-04-28 16:53 | 10.80415 | 106.61760 | 1425 ft | 186 kts | 245° |
| 2026-04-28 16:53 | 10.79917 | 106.60460 | 1652 ft | 208 kts | 246° |
| 2026-04-28 16:53 | 10.79604 | 106.58940 | 1785 ft | 234 kts | 264° |
| 2026-04-28 16:53 | 10.79803 | 106.57203 | 2081 ft | 258 kts | 286° |
| 2026-04-28 16:54 | 10.80581 | 106.55568 | 2828 ft | 263 kts | 305° |
| 2026-04-28 16:54 | 10.81855 | 106.54237 | 3657 ft | 263 kts | 325° |
| 2026-04-28 16:54 | 10.83493 | 106.53419 | 4516 ft | 262 kts | 346° |
| 2026-04-28 16:54 | 10.85295 | 106.53211 | 5342 ft | 263 kts | 5° |
| 2026-04-28 16:55 | 10.87085 | 106.53636 | 6083 ft | 267 kts | 24° |
| 2026-04-28 16:55 | 10.88634 | 106.54661 | 6755 ft | 271 kts | 43° |
| 2026-04-28 16:55 | 10.90059 | 106.55985 | 7297 ft | 283 kts | 43° |
| 2026-04-28 16:55 | 10.91538 | 106.57345 | 7964 ft | 288 kts | 42° |
| 2026-04-28 16:56 | 10.93045 | 106.58723 | 8666 ft | 293 kts | 42° |
| 2026-04-28 16:56 | 10.94575 | 106.60115 | 9366 ft | 297 kts | 42° |
| 2026-04-28 16:56 | 10.96125 | 106.61524 | 10038 ft | 301 kts | 42° |
| 2026-04-28 16:56 | 10.97735 | 106.62990 | 10254 ft | 322 kts | 43° |
| 2026-04-28 16:57 | 10.99461 | 106.64567 | 10379 ft | 345 kts | 42° |
| 2026-04-28 16:57 | 11.01281 | 106.66231 | 10784 ft | 355 kts | 42° |
| 2026-04-28 16:57 | 11.03105 | 106.67900 | 11387 ft | 359 kts | 43° |
| 2026-04-28 16:57 | 11.04977 | 106.69610 | 12017 ft | 362 kts | 42° |
| 2026-04-28 16:58 | 11.06861 | 106.71330 | 12657 ft | 365 kts | 43° |
| 2026-04-28 16:58 | 11.08755 | 106.73062 | 13283 ft | 367 kts | 43° |
| 2026-04-28 16:58 | 11.10669 | 106.74810 | 13888 ft | 370 kts | 42° |
| 2026-04-28 16:58 | 11.12598 | 106.76571 | 14438 ft | 374 kts | 43° |
| 2026-04-28 16:59 | 11.14522 | 106.78364 | 14993 ft | 376 kts | 47° |
| 2026-04-28 16:59 | 11.16211 | 106.80421 | 15523 ft | 379 kts | 53° |
| 2026-04-28 16:59 | 11.17813 | 106.82517 | 16074 ft | 381 kts | 53° |
| 2026-04-28 16:59 | 11.19449 | 106.84661 | 16614 ft | 385 kts | 52° |
| 2026-04-28 17:00 | 11.21101 | 106.86824 | 17143 ft | 388 kts | 53° |
| 2026-04-28 17:00 | 11.22768 | 106.89006 | 17690 ft | 391 kts | 53° |
| 2026-04-28 17:00 | 11.24446 | 106.91200 | 18179 ft | 394 kts | 53° |
| 2026-04-28 17:00 | 11.26140 | 106.93418 | 18629 ft | 397 kts | 53° |
| 2026-04-28 17:01 | 11.27844 | 106.95646 | 19064 ft | 400 kts | 52° |
| 2026-04-28 17:01 | 11.29563 | 106.97889 | 19494 ft | 403 kts | 53° |
| 2026-04-28 17:01 | 11.31291 | 107.00147 | 19926 ft | 406 kts | 53° |
| 2026-04-28 17:01 | 11.33031 | 107.02421 | 20353 ft | 408 kts | 52° |
| 2026-04-28 17:02 | 11.34795 | 107.04704 | 20774 ft | 411 kts | 50° |
| 2026-04-28 17:02 | 11.36098 | 107.06111 | 21041 ft | 414 kts | 44° |
| 2026-04-28 17:02 | 11.39114 | 107.08539 | 21585 ft | 419 kts | 37° |
| 2026-04-28 17:02 | 11.41456 | 107.10318 | 22001 ft | 421 kts | 37° |
| 2026-04-28 17:03 | 11.46182 | 107.13925 | 22816 ft | 427 kts | 38° |
| 2026-04-28 17:03 | 11.48564 | 107.15748 | 23214 ft | 429 kts | 38° |
| 2026-04-28 17:03 | 11.50973 | 107.17587 | 23586 ft | 432 kts | 38° |
| 2026-04-28 17:04 | 11.55800 | 107.21268 | 24259 ft | 437 kts | 37° |
| 2026-04-28 17:04 | 11.58248 | 107.23140 | 24588 ft | 440 kts | 37° |
| 2026-04-28 17:05 | 11.63179 | 107.26912 | 25275 ft | 445 kts | 37° |
| 2026-04-28 17:05 | 11.65628 | 107.28786 | 25613 ft | 447 kts | 37° |
| 2026-04-28 17:05 | 11.68123 | 107.30698 | 25954 ft | 450 kts | 36° |
| 2026-04-28 17:06 | 11.73163 | 107.34558 | 26617 ft | 455 kts | 36° |
| 2026-04-28 17:06 | 11.75705 | 107.36504 | 26938 ft | 457 kts | 36° |
| 2026-04-28 17:06 | 11.80804 | 107.40414 | 27585 ft | 462 kts | 36° |
| 2026-04-28 17:07 | 11.83391 | 107.42395 | 27881 ft | 465 kts | 36° |
| 2026-04-28 17:07 | 11.85990 | 107.44387 | 28185 ft | 468 kts | 36° |
| 2026-04-28 17:07 | 11.88573 | 107.46367 | 28468 ft | 470 kts | 36° |
| 2026-04-28 17:07 | 11.91198 | 107.48381 | 28761 ft | 473 kts | 36° |
| 2026-04-28 17:08 | 11.93843 | 107.50406 | 29053 ft | 475 kts | 36° |
| 2026-04-28 17:08 | 11.96497 | 107.52437 | 29328 ft | 478 kts | 35° |
| 2026-04-28 17:08 | 11.99164 | 107.54481 | 29606 ft | 480 kts | 35° |
| 2026-04-28 17:08 | 12.01844 | 107.56540 | 29885 ft | 482 kts | 35° |
| 2026-04-28 17:09 | 12.04533 | 107.58605 | 30142 ft | 485 kts | 35° |
| 2026-04-28 17:09 | 12.07234 | 107.60679 | 30390 ft | 487 kts | 35° |
| 2026-04-28 17:09 | 12.09941 | 107.62761 | 30719 ft | 486 kts | 35° |
| 2026-04-28 17:09 | 12.12611 | 107.64815 | 30909 ft | 486 kts | 35° |
| 2026-04-28 17:10 | 12.15298 | 107.66881 | 30958 ft | 475 kts | 35° |
| 2026-04-28 17:10 | 12.17917 | 107.68896 | 30962 ft | 467 kts | 35° |
| 2026-04-28 17:10 | 12.23055 | 107.72852 | 30964 ft | 464 kts | 35° |
| 2026-04-28 17:11 | 12.28222 | 107.76827 | 30959 ft | 463 kts | 35° |
| 2026-04-28 17:11 | 12.33799 | 107.80004 | 30955 ft | 458 kts | 17° |
| 2026-04-28 17:12 | 12.39976 | 107.81128 | 30954 ft | 452 kts | 359° |
| 2026-04-28 17:12 | 12.46282 | 107.81248 | 30937 ft | 453 kts | 359° |
| 2026-04-28 17:13 | 12.52587 | 107.81368 | 30947 ft | 453 kts | 359° |
| 2026-04-28 17:13 | 12.58865 | 107.81484 | 30931 ft | 454 kts | 359° |
| 2026-04-28 17:14 | 12.65189 | 107.81615 | 30921 ft | 454 kts | 359° |
| 2026-04-28 17:14 | 12.71515 | 107.81746 | 30920 ft | 455 kts | 359° |
| 2026-04-28 17:15 | 12.77844 | 107.81869 | 30912 ft | 455 kts | 359° |
| 2026-04-28 17:15 | 12.84193 | 107.81992 | 30915 ft | 455 kts | 359° |
| 2026-04-28 17:16 | 12.90564 | 107.82123 | 30926 ft | 464 kts | 359° |
| 2026-04-28 17:16 | 12.97101 | 107.82248 | 30403 ft | 476 kts | 359° |
| 2026-04-28 17:17 | 13.00425 | 107.82312 | 28725 ft | 476 kts | 359° |
| 2026-04-28 17:17 | 13.03711 | 107.82381 | 27578 ft | 465 kts | 360° |
| 2026-04-28 17:17 | 13.06860 | 107.82451 | 27110 ft | 439 kts | 360° |
| 2026-04-28 17:17 | 13.09814 | 107.82517 | 26573 ft | 419 kts | 360° |
| 2026-04-28 17:18 | 13.12665 | 107.82578 | 26035 ft | 401 kts | 360° |
| 2026-04-28 17:18 | 13.15428 | 107.82633 | 25534 ft | 396 kts | 360° |
| 2026-04-28 17:18 | 13.18185 | 107.82683 | 25035 ft | 395 kts | 360° |
| 2026-04-28 17:18 | 13.20954 | 107.82730 | 24536 ft | 398 kts | 0° |
| 2026-04-28 17:19 | 13.23730 | 107.82778 | 24049 ft | 397 kts | 360° |
| 2026-04-28 17:19 | 13.26496 | 107.82830 | 23570 ft | 397 kts | 0° |
| 2026-04-28 17:19 | 13.29221 | 107.82883 | 23063 ft | 395 kts | 0° |
| 2026-04-28 17:19 | 13.31960 | 107.82936 | 22620 ft | 391 kts | 0° |
| 2026-04-28 17:20 | 13.34683 | 107.82993 | 22180 ft | 388 kts | 0° |
| 2026-04-28 17:20 | 13.36474 | 107.83033 | 21893 ft | 386 kts | 0° |
| 2026-04-28 17:20 | 13.40050 | 107.83117 | 21318 ft | 382 kts | 0° |
| 2026-04-28 17:20 | 13.42669 | 107.83177 | 20896 ft | 380 kts | 0° |
| 2026-04-28 17:21 | 13.45303 | 107.83234 | 20467 ft | 378 kts | 0° |
| 2026-04-28 17:21 | 13.47927 | 107.83288 | 20025 ft | 376 kts | 0° |
| 2026-04-28 17:21 | 13.50538 | 107.83343 | 19584 ft | 375 kts | 0° |
| 2026-04-28 17:22 | 13.55745 | 107.83454 | 18696 ft | 373 kts | 0° |
| 2026-04-28 17:22 | 13.58349 | 107.83510 | 18244 ft | 373 kts | 360° |
| 2026-04-28 17:22 | 13.60943 | 107.83564 | 17731 ft | 372 kts | 360° |
| 2026-04-28 17:23 | 13.66068 | 107.83667 | 16784 ft | 368 kts | 360° |
| 2026-04-28 17:23 | 13.68623 | 107.83720 | 16316 ft | 366 kts | 360° |
| 2026-04-28 17:23 | 13.71180 | 107.83773 | 15858 ft | 365 kts | 360° |
| 2026-04-28 17:23 | 13.73712 | 107.83824 | 15391 ft | 363 kts | 360° |
| 2026-04-28 17:24 | 13.76247 | 107.83889 | 14926 ft | 362 kts | 3° |
| 2026-04-28 17:24 | 13.78662 | 107.84449 | 14469 ft | 362 kts | 22° |
| 2026-04-28 17:24 | 13.80785 | 107.85823 | 13994 ft | 362 kts | 42° |
| 2026-04-28 17:24 | 13.82335 | 107.87856 | 13501 ft | 362 kts | 62° |
| 2026-04-28 17:25 | 13.83135 | 107.90287 | 13018 ft | 359 kts | 79° |
| 2026-04-28 17:25 | 13.83983 | 107.95326 | 12058 ft | 355 kts | 80° |
| 2026-04-28 17:25 | 13.84404 | 107.97831 | 11565 ft | 354 kts | 80° |
| 2026-04-28 17:26 | 13.84824 | 108.00324 | 11071 ft | 353 kts | 80° |
| 2026-04-28 17:26 | 13.85244 | 108.02812 | 10573 ft | 352 kts | 80° |
| 2026-04-28 17:26 | 13.85656 | 108.05244 | 10295 ft | 343 kts | 80° |
| 2026-04-28 17:26 | 13.86056 | 108.07621 | 10185 ft | 330 kts | 80° |
| 2026-04-28 17:27 | 13.86441 | 108.09907 | 10066 ft | 317 kts | 80° |
| 2026-04-28 17:27 | 13.86810 | 108.12101 | 9915 ft | 306 kts | 80° |
| 2026-04-28 17:27 | 13.87175 | 108.14274 | 9431 ft | 308 kts | 80° |
| 2026-04-28 17:27 | 13.87532 | 108.16407 | 9059 ft | 304 kts | 80° |
| 2026-04-28 17:28 | 13.87921 | 108.18514 | 8656 ft | 295 kts | 73° |
| 2026-04-28 17:28 | 13.90507 | 108.21405 | 7868 ft | 275 kts | 17° |
| 2026-04-28 17:28 | 13.92355 | 108.21684 | 7481 ft | 265 kts | 359° |
| 2026-04-28 17:29 | 13.94189 | 108.21709 | 7116 ft | 261 kts | 359° |
| 2026-04-28 17:29 | 13.95982 | 108.21736 | 6773 ft | 252 kts | 359° |
| 2026-04-28 17:29 | 13.97713 | 108.21744 | 6391 ft | 245 kts | 354° |
| 2026-04-28 17:30 | 14.00074 | 108.19801 | 5491 ft | 219 kts | 281° |
| 2026-04-28 17:30 | 14.00195 | 108.16789 | 4976 ft | 201 kts | 270° |
| 2026-04-28 17:30 | 14.00217 | 108.15397 | 4726 ft | 193 kts | 270° |
| 2026-04-28 17:31 | 14.00239 | 108.14038 | 4484 ft | 186 kts | 271° |
| 2026-04-28 17:31 | 14.00282 | 108.11493 | 4044 ft | 163 kts | 270° |
| 2026-04-28 17:32 | 14.00319 | 108.09279 | 3631 ft | 150 kts | 271° |
| 2026-04-28 17:32 | 14.00331 | 108.08569 | 3507 ft | 149 kts | 271° |
| 2026-04-28 17:32 | 14.00354 | 108.07160 | 3263 ft | 148 kts | 271° |
| 2026-04-28 17:32 | 14.00372 | 108.06101 | 3086 ft | 148 kts | 270° |
| 2026-04-28 17:33 | 14.00384 | 108.05396 | 2959 ft | 148 kts | 271° |
| 2026-04-28 17:33 | 14.00459 | 108.04324 | 2716 ft | 149 kts | 275° |
| 2026-04-28 17:33 | 14.00418 | 108.03260 | 2569 ft | 149 kts | 270° |
| 2026-04-28 17:33 | 14.00426 | 108.02559 | 2465 ft | 148 kts | 271° |
| 2026-04-28 17:34 | 14.00454 | 108.01314 | 2439 ft | 92 kts | 272° |
| 2026-04-28 17:34 | 14.00458 | 108.00865 | 2437 ft | 44 kts | 271° |
| 2026-04-28 17:34 | 14.00464 | 108.00623 | 2451 ft | 23 kts | 270° |
| 2026-04-28 17:34 | 14.00464 | 108.00498 | 2451 ft | 15 kts | 273° |
| 2026-04-28 17:35 | 14.00531 | 108.00467 | 2451 ft | 9 kts | 30° |
| 2026-04-28 17:35 | 14.00543 | 108.00529 | 2445 ft | 9 kts | 85° |
| 2026-04-28 17:35 | 14.00545 | 108.00592 | 2444 ft | 7 kts | 77° |
| 2026-04-28 17:35 | 14.00581 | 108.00606 | 2452 ft | 5 kts | 3° |
| 2026-04-28 17:36 | 14.00592 | 108.00606 | 2453 ft | 0 kts | 0° |